Time;durP1;ratioP1;P1;durP2;ratioP2;P2;SDS_P1;SDS_P2;PMS_P1;PMS_P2;Temp;Humidity;BMP_temperature;BMP_pressure;BME280_temperature;BME280_humidity;BME280_pressure;Samples;Min_cycle;Max_cycle;Signal;HPM_P1;HPM_P2
2021/09/30 00:01:11;;;;;;;12.45;2.35;;;;;;;-146.90;100.00;60518.97;5025828;28;20038;-78
2021/09/30 00:03:37;;;;;;;15.55;3.08;;;;;;;-146.90;100.00;60518.97;5007698;28;20029;-77
2021/09/30 00:06:02;;;;;;;14.25;2.17;;;;;;;-146.90;100.00;60518.97;5014654;28;20101;-78
2021/09/30 00:08:28;;;;;;;13.50;2.45;;;;;;;-146.90;100.00;60518.97;5018725;28;20100;-78
2021/09/30 00:11:09;;;;;;;22.55;2.95;;;;;;;-146.90;100.00;60518.97;5020281;28;20025;-76
2021/09/30 00:13:45;;;;;;;11.48;2.78;;;;;;;-146.90;100.00;60518.97;5021761;28;20021;-77
2021/09/30 00:36:07;;;;;;;12.98;2.85;;;;;;;-146.90;100.00;60518.97;5025974;28;20060;-78
2021/09/30 00:41:10;;;;;;;9.18;2.13;;;;;;;-146.90;100.00;60518.97;5017985;28;20040;-78
2021/09/30 00:46:30;;;;;;;9.00;2.20;;;;;;;-146.90;100.00;60518.97;5008433;28;20064;-77
2021/09/30 00:49:15;;;;;;;8.18;1.67;;;;;;;-146.90;100.00;60518.97;5007739;28;20033;-77
2021/09/30 00:51:49;;;;;;;9.18;2.33;;;;;;;-146.90;100.00;60518.97;5003062;28;20017;-77
2021/09/30 00:54:28;;;;;;;11.70;2.15;;;;;;;-146.90;100.00;60518.97;5006482;28;20109;-77
2021/09/30 01:30:16;;;;;;;9.07;1.98;;;;;;;-146.90;100.00;60518.97;5010607;28;20080;-77
2021/09/30 02:20:05;;;;;;;12.98;2.60;;;;;;;-146.90;100.00;60518.97;5010528;28;20033;-78
2021/09/30 02:39:06;;;;;;;19.58;2.38;;;;;;;-146.90;100.00;60518.97;5009834;28;20041;-78
2021/09/30 03:00:09;;;;;;;8.75;2.33;;;;;;;-146.90;100.00;60518.97;5009115;28;20067;-77
2021/09/30 03:02:38;;;;;;;11.07;2.25;;;;;;;-146.90;100.00;60518.97;5007260;28;20046;-77
2021/09/30 03:05:04;;;;;;;11.25;2.47;;;;;;;-146.90;100.00;60518.97;4999652;28;20080;-78
2021/09/30 03:07:30;;;;;;;11.05;2.15;;;;;;;-146.90;100.00;60518.97;5004286;28;20026;-77
2021/09/30 03:09:57;;;;;;;13.20;2.47;;;;;;;-146.90;100.00;60518.97;5006239;28;20512;-77
2021/09/30 03:15:00;;;;;;;10.95;3.13;;;;;;;-146.90;100.00;60518.97;5008228;28;20495;-77
2021/09/30 03:17:31;;;;;;;13.55;3.00;;;;;;;-146.90;100.00;60518.97;5010071;28;20033;-78
2021/09/30 03:20:03;;;;;;;9.90;2.20;;;;;;;-146.90;100.00;60518.97;5007837;28;20110;-78
2021/09/30 03:22:31;;;;;;;17.45;2.83;;;;;;;-146.90;100.00;60518.97;5007025;28;20026;-77
2021/09/30 03:24:57;;;;;;;11.23;2.30;;;;;;;-146.90;100.00;60518.97;5008936;28;20030;-77
2021/09/30 03:27:22;;;;;;;16.20;3.33;;;;;;;-146.90;100.00;60518.97;5007271;28;20030;-78
2021/09/30 03:29:48;;;;;;;12.60;2.50;;;;;;;-146.90;100.00;60518.97;5009797;28;20064;-78
2021/09/30 03:32:13;;;;;;;20.15;4.00;;;;;;;-146.90;100.00;60518.97;5009354;28;20110;-77
2021/09/30 03:34:39;;;;;;;11.48;2.83;;;;;;;-146.90;100.00;60518.97;5008692;28;20025;-77
2021/09/30 03:37:05;;;;;;;11.75;2.90;;;;;;;-146.90;100.00;60518.97;5008052;28;20395;-77
2021/09/30 03:39:30;;;;;;;12.35;2.58;;;;;;;-146.90;100.00;60518.97;5008981;28;20030;-78
2021/09/30 03:41:56;;;;;;;11.82;2.30;;;;;;;-146.90;100.00;60518.97;5009950;28;20023;-78
2021/09/30 03:44:22;;;;;;;13.90;2.70;;;;;;;-146.90;100.00;60518.97;5002792;28;20104;-79
2021/09/30 03:46:51;;;;;;;14.73;3.42;;;;;;;-146.90;100.00;60518.97;5006935;28;20415;-77
2021/09/30 03:49:29;;;;;;;10.00;2.40;;;;;;;-146.90;100.00;60518.97;5005631;28;20023;-77
2021/09/30 03:52:04;;;;;;;9.45;2.10;;;;;;;-146.90;100.00;60518.97;5008863;28;20048;-76
2021/09/30 03:59:22;;;;;;;11.70;2.50;;;;;;;-146.90;100.00;60518.97;5010202;28;20051;-77
2021/09/30 04:01:55;;;;;;;12.32;2.40;;;;;;;-146.90;100.00;60518.97;5009498;28;20464;-77
2021/09/30 04:04:26;;;;;;;4.68;1.65;;;;;;;-146.90;100.00;60518.97;5009826;28;20026;-77
2021/09/30 04:06:54;;;;;;;9.95;2.38;;;;;;;-146.90;100.00;60518.97;5006853;28;20559;-78
2021/09/30 04:09:23;;;;;;;11.73;2.17;;;;;;;-146.90;100.00;60518.97;5008463;28;20121;-77
2021/09/30 04:11:48;;;;;;;12.15;3.95;;;;;;;-146.90;100.00;60518.97;5009123;28;20033;-78
2021/09/30 04:14:15;;;;;;;10.90;2.83;;;;;;;-146.90;100.00;60518.97;5008026;28;20026;-77
2021/09/30 04:16:47;;;;;;;15.55;2.55;;;;;;;-146.90;100.00;60518.97;4997676;28;20063;-76
2021/09/30 04:19:12;;;;;;;11.65;2.88;;;;;;;-146.90;100.00;60518.97;5008040;28;20432;-76
2021/09/30 04:21:38;;;;;;;12.50;2.47;;;;;;;-146.90;100.00;60518.97;5008648;28;20034;-78
2021/09/30 04:24:03;;;;;;;16.83;2.92;;;;;;;-146.90;100.00;60518.97;5009396;28;20033;-77
2021/09/30 04:26:29;;;;;;;11.23;2.30;;;;;;;-146.90;100.00;60518.97;5004201;28;20026;-77
2021/09/30 04:28:54;;;;;;;12.45;2.60;;;;;;;-146.90;100.00;60518.97;5006921;28;20494;-76
2021/09/30 04:31:23;;;;;;;13.30;2.28;;;;;;;-146.90;100.00;60518.97;5008883;28;20026;-78
2021/09/30 04:33:48;;;;;;;13.52;2.78;;;;;;;-146.90;100.00;60518.97;5008081;28;20190;-78
2021/09/30 04:36:13;;;;;;;12.00;2.75;;;;;;;-146.90;100.00;60518.97;4997194;28;20280;-76
2021/09/30 04:38:39;;;;;;;14.27;2.92;;;;;;;-146.90;100.00;60518.97;5009035;28;20033;-77
2021/09/30 04:41:04;;;;;;;15.07;2.92;;;;;;;-146.90;100.00;60518.97;5006886;28;20097;-77
2021/09/30 04:43:29;;;;;;;12.20;2.80;;;;;;;-146.90;100.00;60518.97;5008297;28;20084;-78
2021/09/30 04:45:55;;;;;;;17.98;2.85;;;;;;;-146.90;100.00;60518.97;4999621;28;20523;-77
2021/09/30 04:48:20;;;;;;;13.30;2.60;;;;;;;-146.90;100.00;60518.97;5002815;28;20405;-76
2021/09/30 04:50:45;;;;;;;16.92;3.08;;;;;;;-146.90;100.00;60518.97;5009364;28;20026;-77
2021/09/30 04:53:11;;;;;;;10.70;2.53;;;;;;;-146.90;100.00;60518.97;5007133;28;20025;-78
2021/09/30 04:55:36;;;;;;;13.50;2.42;;;;;;;-146.90;100.00;60518.97;5008503;28;20037;-77
2021/09/30 04:58:01;;;;;;;12.20;2.78;;;;;;;-146.90;100.00;60518.97;5001366;28;20076;-79
2021/09/30 05:00:27;;;;;;;9.45;2.17;;;;;;;-146.90;100.00;60518.97;5005259;28;20164;-77
2021/09/30 05:02:52;;;;;;;11.35;2.40;;;;;;;-146.90;100.00;60518.97;5006960;28;20622;-78
2021/09/30 05:05:17;;;;;;;12.93;2.42;;;;;;;-146.90;100.00;60518.97;5007962;28;20404;-77
2021/09/30 05:07:43;;;;;;;16.27;2.90;;;;;;;-146.90;100.00;60518.97;5006241;28;20472;-78
2021/09/30 05:10:11;;;;;;;14.63;3.17;;;;;;;-146.90;100.00;60518.97;5006974;28;20044;-78
2021/09/30 05:12:36;;;;;;;9.90;2.45;;;;;;;-146.90;100.00;60518.97;5009225;28;20488;-77
2021/09/30 05:15:03;;;;;;;17.70;3.10;;;;;;;-146.90;100.00;60518.97;5007624;28;20165;-79
2021/09/30 05:17:28;;;;;;;16.60;2.80;;;;;;;-146.90;100.00;60518.97;5008871;28;20109;-77
2021/09/30 05:19:54;;;;;;;14.60;2.80;;;;;;;-146.90;100.00;60518.97;5007938;28;20109;-77
2021/09/30 05:22:19;;;;;;;8.10;2.28;;;;;;;-146.90;100.00;60518.97;5008514;28;20027;-77
2021/09/30 05:24:45;;;;;;;15.95;3.08;;;;;;;-146.90;100.00;60518.97;5006637;28;20045;-78
2021/09/30 05:27:10;;;;;;;13.15;2.60;;;;;;;-146.90;100.00;60518.97;4998990;28;20065;-77
2021/09/30 05:29:35;;;;;;;14.88;3.00;;;;;;;-146.90;100.00;60518.97;5003409;28;20041;-78
2021/09/30 05:32:01;;;;;;;15.82;2.58;;;;;;;-146.90;100.00;60518.97;5005949;28;20025;-77
2021/09/30 05:34:26;;;;;;;7.45;2.10;;;;;;;-146.90;100.00;60518.97;5001507;28;20044;-77
2021/09/30 05:36:51;;;;;;;14.88;2.35;;;;;;;-146.90;100.00;60518.97;4995877;28;20438;-76
2021/09/30 05:39:16;;;;;;;8.30;2.47;;;;;;;-146.90;100.00;60518.97;5007534;28;20369;-77
2021/09/30 05:41:42;;;;;;;12.68;2.42;;;;;;;-146.90;100.00;60518.97;5005740;28;20037;-77
2021/09/30 05:44:11;;;;;;;14.68;2.78;;;;;;;-146.90;100.00;60518.97;5000903;28;20680;-77
2021/09/30 05:46:52;;;;;;;13.55;2.30;;;;;;;-146.90;100.00;60518.97;4993359;28;20038;-78
2021/09/30 05:49:17;;;;;;;8.35;2.20;;;;;;;-146.90;100.00;60518.97;5007810;28;20026;-78
2021/09/30 05:51:42;;;;;;;8.98;2.05;;;;;;;-146.90;100.00;60518.97;5007959;28;20431;-78
2021/09/30 05:54:08;;;;;;;11.10;2.80;;;;;;;-146.90;100.00;60518.97;5007138;28;20112;-76
2021/09/30 05:56:33;;;;;;;10.73;2.08;;;;;;;-146.90;100.00;60518.97;5006313;28;20041;-77
2021/09/30 05:58:58;;;;;;;10.60;2.22;;;;;;;-146.90;100.00;60518.97;5006462;28;20030;-78
2021/09/30 06:01:56;;;;;;;8.02;2.25;;;;;;;-146.90;100.00;60518.97;5008338;28;20037;-77
2021/09/30 06:06:06;;;;;;;9.00;1.90;;;;;;;-146.90;100.00;60518.97;5008158;28;20042;-79
2021/09/30 06:12:35;;;;;;;11.95;2.30;;;;;;;-146.90;100.00;60518.97;4997522;28;20039;-74
2021/09/30 06:15:02;;;;;;;15.90;2.88;;;;;;;-146.90;100.00;60518.97;4998222;28;20036;-75
2021/09/30 06:17:28;;;;;;;11.23;2.17;;;;;;;-146.90;100.00;60518.97;5005076;28;20099;-75
2021/09/30 06:19:54;;;;;;;8.68;2.13;;;;;;;-146.90;100.00;60518.97;5010346;28;20109;-75
2021/09/30 06:22:19;;;;;;;14.60;2.30;;;;;;;-146.90;100.00;60518.97;5012042;28;20052;-74
2021/09/30 06:24:45;;;;;;;12.93;2.88;;;;;;;-146.90;100.00;60518.97;5011726;28;20013;-75
2021/09/30 06:27:10;;;;;;;13.15;2.30;;;;;;;-146.90;100.00;60518.97;5011119;28;20475;-75
2021/09/30 06:29:35;;;;;;;6.22;1.77;;;;;;;-146.90;100.00;60518.97;5011920;28;20029;-74
2021/09/30 06:32:01;;;;;;;12.43;2.58;;;;;;;-146.90;100.00;60518.97;5010787;28;20030;-75
2021/09/30 06:34:26;;;;;;;12.30;2.33;;;;;;;-146.90;100.00;60518.97;4995738;28;20042;-74
2021/09/30 06:36:52;;;;;;;10.00;2.25;;;;;;;-146.90;100.00;60518.97;5004621;28;20490;-74
2021/09/30 06:39:17;;;;;;;14.57;2.80;;;;;;;-146.90;100.00;60518.97;5011186;28;20022;-74
2021/09/30 06:41:42;;;;;;;10.88;2.08;;;;;;;-146.90;100.00;60518.97;5009821;28;20440;-75
2021/09/30 06:44:08;;;;;;;13.77;3.15;;;;;;;-146.90;100.00;60518.97;5008121;28;20053;-75
2021/09/30 06:46:33;;;;;;;9.88;2.22;;;;;;;-146.90;100.00;60518.97;5010454;28;20030;-74
2021/09/30 06:48:58;;;;;;;9.10;2.40;;;;;;;-146.90;100.00;60518.97;5010534;28;20034;-74
2021/09/30 06:51:24;;;;;;;15.27;2.13;;;;;;;-146.90;100.00;60518.97;5009958;28;20486;-74
2021/09/30 06:53:49;;;;;;;11.02;2.65;;;;;;;-146.90;100.00;60518.97;5009530;28;20046;-74
2021/09/30 06:56:17;;;;;;;13.63;2.70;;;;;;;-146.90;100.00;60518.97;5010323;28;20038;-75
2021/09/30 06:58:45;;;;;;;17.70;2.55;;;;;;;-146.90;100.00;60518.97;5003439;28;20554;-74
2021/09/30 07:01:11;;;;;;;9.25;2.40;;;;;;;-146.90;100.00;60518.97;5008796;28;20041;-74
2021/09/30 07:03:36;;;;;;;11.52;2.78;;;;;;;-146.90;100.00;60518.97;5005393;28;20030;-75
2021/09/30 07:06:02;;;;;;;9.35;2.47;;;;;;;-146.90;100.00;60518.97;5008307;28;20033;-78
2021/09/30 07:08:28;;;;;;;7.85;2.58;;;;;;;-146.90;100.00;60518.97;5011003;28;20424;-76
2021/09/30 07:10:53;;;;;;;12.95;2.92;;;;;;;-146.90;100.00;60518.97;5008021;28;20029;-75
2021/09/30 07:13:19;;;;;;;10.55;2.42;;;;;;;-146.90;100.00;60518.97;5010499;28;20049;-74
2021/09/30 07:15:44;;;;;;;10.98;2.78;;;;;;;-146.90;100.00;60518.97;5008389;28;20443;-74
2021/09/30 07:18:17;;;;;;;9.10;2.30;;;;;;;-146.90;100.00;60518.97;5008753;28;20029;-74
2021/09/30 07:20:43;;;;;;;16.67;3.60;;;;;;;-146.90;100.00;60518.97;5002175;28;20055;-74
2021/09/30 07:23:08;;;;;;;11.60;2.72;;;;;;;-146.90;100.00;60518.97;5008575;28;20113;-77
2021/09/30 07:25:33;;;;;;;15.38;2.88;;;;;;;-146.90;100.00;60518.97;5009755;28;20531;-74
2021/09/30 07:27:59;;;;;;;16.88;2.90;;;;;;;-146.90;100.00;60518.97;5009231;28;20076;-76
2021/09/30 07:30:25;;;;;;;11.40;2.67;;;;;;;-146.90;100.00;60518.97;5010465;28;20068;-76
2021/09/30 07:32:50;;;;;;;11.95;3.03;;;;;;;-146.90;100.00;60518.97;5010474;28;20034;-76
2021/09/30 07:35:15;;;;;;;15.73;3.25;;;;;;;-146.90;100.00;60518.97;5009024;28;20028;-77
2021/09/30 07:37:41;;;;;;;12.13;3.20;;;;;;;-146.90;100.00;60518.97;5009787;28;20103;-76
2021/09/30 07:40:07;;;;;;;16.52;3.15;;;;;;;-146.90;100.00;60518.97;5009760;28;20022;-78
2021/09/30 07:42:33;;;;;;;17.73;4.05;;;;;;;-146.90;100.00;60518.97;5009968;28;20014;-75
2021/09/30 07:44:58;;;;;;;13.98;3.17;;;;;;;-146.90;100.00;60518.97;5004321;28;20113;-75
2021/09/30 07:47:24;;;;;;;9.88;3.22;;;;;;;-146.90;100.00;60518.97;5003781;28;20060;-75
2021/09/30 07:49:50;;;;;;;13.93;2.50;;;;;;;-146.90;100.00;60518.97;4984872;28;20030;-76
2021/09/30 07:52:15;;;;;;;15.18;2.83;;;;;;;-146.90;100.00;60518.97;5001632;28;20091;-76
2021/09/30 07:54:41;;;;;;;9.30;3.00;;;;;;;-146.90;100.00;60518.97;5005803;28;20040;-75
2021/09/30 07:57:06;;;;;;;12.32;3.10;;;;;;;-146.90;100.00;60518.97;5001909;28;20032;-77
2021/09/30 07:59:32;;;;;;;13.13;3.33;;;;;;;-146.90;100.00;60518.97;5007854;28;20056;-76
2021/09/30 08:01:57;;;;;;;14.98;2.92;;;;;;;-146.90;100.00;60518.97;5007286;28;20030;-77
2021/09/30 08:04:23;;;;;;;11.98;2.63;;;;;;;-146.90;100.00;60518.97;4989496;28;20169;-77
2021/09/30 08:06:48;;;;;;;13.07;2.90;;;;;;;-146.90;100.00;60518.97;4990098;28;20022;-77
2021/09/30 08:09:13;;;;;;;13.43;2.88;;;;;;;-146.90;100.00;60518.97;4989856;28;20443;-77
2021/09/30 08:11:39;;;;;;;10.18;2.95;;;;;;;-146.90;100.00;60518.97;5003203;28;20043;-78
2021/09/30 08:14:04;;;;;;;16.88;2.90;;;;;;;-146.90;100.00;60518.97;5016901;28;20483;-77
2021/09/30 08:16:30;;;;;;;14.32;3.08;;;;;;;-146.90;100.00;60518.97;4988804;28;20439;-77
2021/09/30 08:18:56;;;;;;;21.63;3.70;;;;;;;-146.90;100.00;60518.97;4990591;28;20113;-76
2021/09/30 08:21:21;;;;;;;13.80;2.85;;;;;;;-146.90;100.00;60518.97;4990336;28;20036;-75
2021/09/30 08:23:47;;;;;;;10.13;2.60;;;;;;;-146.90;100.00;60518.97;4990586;28;20022;-76
2021/09/30 08:26:18;;;;;;;11.50;2.75;;;;;;;-146.90;100.00;60518.97;4989412;28;20583;-78
2021/09/30 08:28:48;;;;;;;16.15;3.08;;;;;;;-146.90;100.00;60518.97;4999344;28;20029;-74
2021/09/30 08:31:15;;;;;;;10.25;3.15;;;;;;;-146.90;100.00;60518.97;5007898;28;20026;-73
2021/09/30 08:33:42;;;;;;;13.35;2.83;;;;;;;-146.90;100.00;60518.97;5008299;28;20033;-74
2021/09/30 08:36:12;;;;;;;8.00;2.33;;;;;;;-146.90;100.00;60518.97;5006256;28;20037;-74
2021/09/30 08:38:38;;;;;;;11.05;2.70;;;;;;;-146.90;100.00;60518.97;5008074;28;20048;-74
2021/09/30 08:41:03;;;;;;;11.02;2.97;;;;;;;-146.90;100.00;60518.97;5002112;28;20026;-73
2021/09/30 08:43:28;;;;;;;13.55;2.75;;;;;;;-146.90;100.00;60518.97;4988581;28;20038;-74
2021/09/30 08:45:54;;;;;;;11.48;2.83;;;;;;;-146.90;100.00;60518.97;4989394;28;20727;-74
2021/09/30 08:48:20;;;;;;;15.32;2.95;;;;;;;-146.90;100.00;60518.97;4990177;28;20061;-75
2021/09/30 08:50:45;;;;;;;18.45;3.40;;;;;;;-146.90;100.00;60518.97;4989624;28;20033;-75
2021/09/30 08:53:12;;;;;;;14.20;3.53;;;;;;;-146.90;100.00;60518.97;5008656;28;20038;-77
2021/09/30 08:55:39;;;;;;;10.65;2.83;;;;;;;-146.90;100.00;60518.97;5005373;28;20026;-75
2021/09/30 08:58:06;;;;;;;9.05;3.00;;;;;;;-146.90;100.00;60518.97;4988711;28;20497;-76
2021/09/30 09:00:32;;;;;;;10.85;2.63;;;;;;;-146.90;100.00;60518.97;4989494;28;20109;-76
2021/09/30 09:03:01;;;;;;;8.15;2.65;;;;;;;-146.90;100.00;60518.97;4987990;28;20061;-75
2021/09/30 09:05:27;;;;;;;11.27;3.22;;;;;;;-146.90;100.00;60518.97;4988652;28;20026;-73
2021/09/30 09:08:00;;;;;;;12.50;2.80;;;;;;;-146.90;100.00;60518.97;4987969;28;20038;-75
2021/09/30 09:10:29;;;;;;;10.18;3.10;;;;;;;-146.90;100.00;60518.97;5002046;28;20430;-76
2021/09/30 09:13:04;;;;;;;15.20;2.65;;;;;;;-146.90;100.00;60518.97;5008283;28;20480;-74
2021/09/30 09:15:43;;;;;;;13.68;3.15;;;;;;;-146.90;100.00;60518.97;5008580;28;20096;-77
2021/09/30 09:18:12;;;;;;;18.73;2.90;;;;;;;-146.90;100.00;60518.97;5005166;28;20087;-76
2021/09/30 09:20:37;;;;;;;14.23;2.95;;;;;;;-146.90;100.00;60518.97;4988339;28;20496;-76
2021/09/30 09:23:02;;;;;;;16.33;3.03;;;;;;;-146.90;100.00;60518.97;4988752;28;20073;-78
2021/09/30 09:25:29;;;;;;;12.05;2.58;;;;;;;-146.90;100.00;60518.97;4988631;28;20033;-76
2021/09/30 09:27:57;;;;;;;9.00;2.80;;;;;;;-146.90;100.00;60518.97;4987722;28;20143;-76
2021/09/30 09:30:34;;;;;;;9.10;2.50;;;;;;;-146.90;100.00;60518.97;4990171;28;20026;-77
2021/09/30 09:33:00;;;;;;;13.45;2.58;;;;;;;-146.90;100.00;60518.97;4991747;28;20030;-75
2021/09/30 09:35:25;;;;;;;12.55;2.72;;;;;;;-146.90;100.00;60518.97;5008225;28;20104;-77
2021/09/30 09:37:52;;;;;;;13.23;2.70;;;;;;;-146.90;100.00;60518.97;5008576;28;20113;-77
2021/09/30 09:40:19;;;;;;;15.38;2.80;;;;;;;-146.90;100.00;60518.97;5006905;28;20026;-77
2021/09/30 09:42:46;;;;;;;13.32;2.92;;;;;;;-146.90;100.00;60518.97;5007129;28;20034;-77
2021/09/30 09:45:13;;;;;;;11.38;2.78;;;;;;;-146.90;100.00;60518.97;5006150;28;20091;-76
2021/09/30 09:47:40;;;;;;;12.07;2.90;;;;;;;-146.90;100.00;60518.97;5007902;28;20034;-78
2021/09/30 09:50:25;;;;;;;11.45;2.42;;;;;;;-146.90;100.00;60518.97;5011587;28;20026;-79
2021/09/30 09:52:56;;;;;;;9.32;2.50;;;;;;;-146.90;100.00;60518.97;4994219;28;20096;-78
2021/09/30 09:55:34;;;;;;;11.88;3.53;;;;;;;-146.90;100.00;60518.97;5003754;28;20038;-74
2021/09/30 09:58:02;;;;;;;11.05;2.83;;;;;;;-146.90;100.00;60518.97;5011001;28;20141;-75
2021/09/30 10:00:29;;;;;;;8.30;2.72;;;;;;;-146.90;100.00;60518.97;5012048;28;20041;-77
2021/09/30 10:02:54;;;;;;;10.43;2.50;;;;;;;-146.90;100.00;60518.97;4992247;28;20404;-76
2021/09/30 10:05:21;;;;;;;12.23;2.40;;;;;;;-146.90;100.00;60518.97;5011466;28;20042;-77
2021/09/30 10:07:47;;;;;;;10.13;2.30;;;;;;;-146.90;100.00;60518.97;5009361;28;20123;-76
2021/09/30 10:10:12;;;;;;;13.02;2.58;;;;;;;-146.90;100.00;60518.97;5012057;28;20471;-76
2021/09/30 10:12:38;;;;;;;7.20;2.53;;;;;;;-146.90;100.00;60518.97;5012562;28;20447;-79
2021/09/30 10:15:03;;;;;;;9.20;2.83;;;;;;;-146.90;100.00;60518.97;5010513;28;20030;-77
2021/09/30 10:17:29;;;;;;;8.57;2.42;;;;;;;-146.90;100.00;60518.97;5010903;28;20109;-76
2021/09/30 10:19:57;;;;;;;12.40;2.60;;;;;;;-146.90;100.00;60518.97;5011375;28;20503;-76
2021/09/30 10:22:23;;;;;;;10.30;2.58;;;;;;;-146.90;100.00;60518.97;5012070;28;20029;-76
2021/09/30 10:24:49;;;;;;;15.68;2.85;;;;;;;-146.90;100.00;60518.97;5010995;28;20041;-77
2021/09/30 10:27:15;;;;;;;9.93;2.50;;;;;;;-146.90;100.00;60518.97;5011447;28;20128;-76
2021/09/30 10:29:45;;;;;;;8.60;2.33;;;;;;;-146.90;100.00;60518.97;5008013;28;20037;-77
2021/09/30 10:32:12;;;;;;;11.90;2.42;;;;;;;-146.90;100.00;60518.97;5011471;28;20108;-77
2021/09/30 10:34:41;;;;;;;11.85;2.65;;;;;;;-146.90;100.00;60518.97;5011679;28;20153;-76
2021/09/30 10:37:26;;;;;;;10.75;2.30;;;;;;;-146.90;100.00;60518.97;5010550;28;20140;-77
2021/09/30 10:40:23;;;;;;;9.10;2.22;;;;;;;-146.90;100.00;60518.97;5009523;28;20034;-77
2021/09/30 10:42:56;;;;;;;8.63;2.38;;;;;;;-146.90;100.00;60518.97;5010123;28;20033;-77
2021/09/30 10:45:27;;;;;;;10.57;2.60;;;;;;;-146.90;100.00;60518.97;5009605;28;20022;-76
2021/09/30 10:47:55;;;;;;;9.60;2.60;;;;;;;-146.90;100.00;60518.97;5010984;28;20468;-76
2021/09/30 10:50:44;;;;;;;11.02;2.60;;;;;;;-146.90;100.00;60518.97;5009983;28;20379;-77
2021/09/30 10:53:09;;;;;;;9.45;2.28;;;;;;;-146.90;100.00;60518.97;4991416;28;20086;-77
2021/09/30 10:55:34;;;;;;;15.27;2.70;;;;;;;-146.90;100.00;60518.97;4997926;28;20172;-78
2021/09/30 10:58:01;;;;;;;8.93;2.13;;;;;;;-146.90;100.00;60518.97;5010316;28;20022;-76
2021/09/30 11:00:29;;;;;;;12.80;2.75;;;;;;;-146.90;100.00;60518.97;5010294;28;20442;-77
2021/09/30 11:03:00;;;;;;;10.25;2.33;;;;;;;-146.90;100.00;60518.97;5010059;28;20429;-76
2021/09/30 11:05:33;;;;;;;10.63;2.67;;;;;;;-146.90;100.00;60518.97;5010489;28;20041;-76
2021/09/30 11:08:18;;;;;;;10.80;2.97;;;;;;;-146.90;100.00;60518.97;5010461;28;20476;-76
2021/09/30 11:11:05;;;;;;;8.82;2.33;;;;;;;-146.90;100.00;60518.97;5000335;28;20589;-76
2021/09/30 11:13:34;;;;;;;14.15;2.22;;;;;;;-146.90;100.00;60518.97;4990954;28;20026;-76
2021/09/30 11:16:18;;;;;;;10.20;2.35;;;;;;;-146.90;100.00;60518.97;4988546;28;20571;-74
2021/09/30 11:18:54;;;;;;;12.90;2.65;;;;;;;-146.90;100.00;60518.97;4990371;28;20030;-77
2021/09/30 11:21:32;;;;;;;13.88;2.97;;;;;;;-146.90;100.00;60518.97;4991100;28;20030;-77
2021/09/30 11:24:05;;;;;;;16.25;2.45;;;;;;;-146.90;100.00;60518.97;4998334;28;20133;-76
2021/09/30 11:26:55;;;;;;;7.50;2.00;;;;;;;-146.90;100.00;60518.97;5010269;28;20022;-75
2021/09/30 11:29:25;;;;;;;11.45;2.50;;;;;;;-146.90;100.00;60518.97;5011209;28;20022;-76
2021/09/30 11:31:53;;;;;;;10.20;2.22;;;;;;;-146.90;100.00;60518.97;5010405;28;20026;-76
2021/09/30 11:34:19;;;;;;;13.60;2.63;;;;;;;-146.90;100.00;60518.97;5007124;28;20376;-77
2021/09/30 11:36:45;;;;;;;12.32;2.80;;;;;;;-146.90;100.00;60518.97;4990724;28;20031;-77
2021/09/30 11:39:11;;;;;;;6.75;1.98;;;;;;;-146.90;100.00;60518.97;4990508;28;20092;-77
2021/09/30 11:41:39;;;;;;;6.90;2.33;;;;;;;-146.90;100.00;60518.97;4991591;28;20030;-77
2021/09/30 11:44:05;;;;;;;9.40;2.38;;;;;;;-146.90;100.00;60518.97;4990413;28;20076;-77
2021/09/30 11:46:32;;;;;;;8.82;2.38;;;;;;;-146.90;100.00;60518.97;4989148;28;20038;-77
2021/09/30 11:49:00;;;;;;;13.38;3.20;;;;;;;-146.90;100.00;60518.97;4990443;28;20042;-76
2021/09/30 11:51:42;;;;;;;11.10;2.50;;;;;;;-146.90;100.00;60518.97;4998378;28;20576;-77
2021/09/30 11:54:12;;;;;;;6.53;2.63;;;;;;;-146.90;100.00;60518.97;5009075;28;20387;-77
2021/09/30 11:56:42;;;;;;;10.10;2.42;;;;;;;-146.90;100.00;60518.97;5009749;28;20026;-77
2021/09/30 11:59:08;;;;;;;12.07;2.80;;;;;;;-146.90;100.00;60518.97;5008367;28;20046;-77
2021/09/30 12:01:41;;;;;;;11.10;2.17;;;;;;;-146.90;100.00;60518.97;5008361;28;20096;-76
2021/09/30 12:04:08;;;;;;;5.82;2.03;;;;;;;-146.90;100.00;60518.97;5009144;28;20998;-77
2021/09/30 12:06:47;;;;;;;7.15;2.10;;;;;;;-146.90;100.00;60518.97;4988700;28;20050;-82
2021/09/30 12:09:15;;;;;;;13.10;2.20;;;;;;;-146.90;100.00;60518.97;5004834;28;20069;-81
2021/09/30 12:12:10;;;;;;;8.75;2.30;;;;;;;-146.90;100.00;60518.97;4988744;28;20460;-83
2021/09/30 12:14:40;;;;;;;;;;;;;;;-146.90;100.00;60518.97;4972860;28;20061;-74
2021/09/30 12:17:08;;;;;;;8.18;2.00;;;;;;;-146.90;100.00;60518.97;4989631;28;19913;-78
2021/09/30 12:19:39;;;;;;;7.18;2.35;;;;;;;-146.90;100.00;60518.97;4990720;28;20045;-76
2021/09/30 12:22:13;;;;;;;9.73;2.33;;;;;;;-146.90;100.00;60518.97;4989604;28;20026;-75
2021/09/30 12:24:49;;;;;;;;;;;;;;;-146.90;100.00;60518.97;4988200;28;20041;-79
2021/09/30 12:27:15;;;;;;;7.22;2.17;;;;;;;-146.90;100.00;60518.97;4991970;28;20258;-80
2021/09/30 12:29:47;;;;;;;5.50;1.98;;;;;;;-146.90;100.00;60518.97;5008474;28;20033;-79
2021/09/30 12:32:15;;;;;;;7.63;2.00;;;;;;;-146.90;100.00;60518.97;5009361;28;20018;-81
2021/09/30 12:35:02;;;;;;;12.02;2.35;;;;;;;-146.90;100.00;60518.97;5009688;28;20032;-79
2021/09/30 12:37:32;;;;;;;9.60;2.10;;;;;;;-146.90;100.00;60518.97;4996133;28;20053;-78
2021/09/30 12:40:05;;;;;;;12.63;2.30;;;;;;;-146.90;100.00;60518.97;4997596;28;20030;-78
2021/09/30 12:42:31;;;;;;;7.30;2.20;;;;;;;-146.90;100.00;60518.97;4988828;28;20034;-76
2021/09/30 12:44:57;;;;;;;8.23;2.30;;;;;;;-146.90;100.00;60518.97;4988942;28;20643;-82
2021/09/30 12:47:38;;;;;;;7.78;1.95;;;;;;;-146.90;100.00;60518.97;5003588;28;20030;-78
2021/09/30 12:50:03;;;;;;;7.43;2.35;;;;;;;-146.90;100.00;60518.97;5008368;28;20025;-76
2021/09/30 12:52:28;;;;;;;11.52;2.15;;;;;;;-146.90;100.00;60518.97;5006398;28;20049;-76
2021/09/30 12:54:54;;;;;;;11.60;2.33;;;;;;;-146.90;100.00;60518.97;5007263;28;20365;-77
2021/09/30 12:57:19;;;;;;;7.25;2.15;;;;;;;-146.90;100.00;60518.97;5007077;28;20061;-77
2021/09/30 13:00:04;;;;;;;8.23;2.15;;;;;;;-146.90;100.00;60518.97;5008295;28;20030;-77
2021/09/30 13:02:29;;;;;;;11.77;2.30;;;;;;;-146.90;100.00;60518.97;5008671;28;20076;-76
2021/09/30 13:04:54;;;;;;;9.20;2.53;;;;;;;-146.90;100.00;60518.97;5007503;28;20521;-76
2021/09/30 13:07:20;;;;;;;6.25;2.05;;;;;;;-146.90;100.00;60518.97;5001530;28;20632;-76
2021/09/30 13:09:45;;;;;;;11.55;2.65;;;;;;;-146.90;100.00;60518.97;5006721;28;20455;-75
2021/09/30 13:12:15;;;;;;;13.40;2.85;;;;;;;-146.90;100.00;60518.97;5002215;28;20064;-75
2021/09/30 13:14:45;;;;;;;9.00;2.72;;;;;;;-146.90;100.00;60518.97;5008524;28;20091;-76
2021/09/30 13:17:21;;;;;;;16.40;3.55;;;;;;;-146.90;100.00;60518.97;5005032;28;20388;-78
2021/09/30 13:19:58;;;;;;;11.63;2.53;;;;;;;-146.90;100.00;60518.97;5001960;28;20492;-77
2021/09/30 13:22:28;;;;;;;12.38;2.55;;;;;;;-146.90;100.00;60518.97;5006212;28;20495;-76
2021/09/30 13:24:55;;;;;;;11.02;2.70;;;;;;;-146.90;100.00;60518.97;5005894;28;20038;-76
2021/09/30 13:27:22;;;;;;;10.82;2.90;;;;;;;-146.90;100.00;60518.97;5008154;28;20022;-77
2021/09/30 13:29:49;;;;;;;11.50;3.33;;;;;;;-146.90;100.00;60518.97;5008203;28;20105;-76
2021/09/30 13:32:16;;;;;;;13.32;2.92;;;;;;;-146.90;100.00;60518.97;5000413;28;20420;-77
2021/09/30 13:34:41;;;;;;;11.07;3.10;;;;;;;-146.90;100.00;60518.97;5005607;28;20577;-77
2021/09/30 13:37:07;;;;;;;15.02;2.75;;;;;;;-146.90;100.00;60518.97;5007225;28;20014;-76
2021/09/30 13:39:32;;;;;;;17.60;3.67;;;;;;;-146.90;100.00;60518.97;5006391;28;20033;-75
2021/09/30 13:41:58;;;;;;;8.88;2.95;;;;;;;-146.90;100.00;60518.97;5007707;28;20030;-79
2021/09/30 13:44:24;;;;;;;12.13;2.95;;;;;;;-146.90;100.00;60518.97;5008543;28;20085;-79